<?xml version='1.0' encoding='UTF-8'?>
<gpx xmlns="http://www.topografix.com/GPX/1/1" creator="www.balnam.be" version="1.1" xmlns:xsi="http://www.w3.org/2001/XMLSchema-instance" xsi:schemaLocation="http://www.topografix.com/GPX/1/1 http://www.topografix.com/GPX/1/1/gpx.xsd">
<trk>
<name>louht15</name>
<cmt>q</cmt>
<desc>Haccourt Chemin n°15 Rue du Moulin</desc>
<link href="https://chemins.be/haccourt/chemin/15"/><trkseg>
<trkpt lat="50.737249" lon="5.672682"><time>2026-05-02T20:44:38Z</time></trkpt>
<trkpt lat="50.736725" lon="5.672267"><time>2026-05-02T20:54:38Z</time></trkpt>
</trkseg></trk>
<trk>
<name>louht15</name>
<cmt>s</cmt>
<desc>Haccourt Chemin n°15 Rue du Moulin</desc>
<link href="https://chemins.be/haccourt/chemin/15"/><trkseg>
<trkpt lat="50.736725" lon="5.672267"><time>2026-05-02T20:54:38Z</time></trkpt>
<trkpt lat="50.735873" lon="5.671631"><time>2026-05-02T21:04:38Z</time></trkpt>
<trkpt lat="50.735142" lon="5.670695"><time>2026-05-02T21:14:38Z</time></trkpt>
</trkseg></trk>
<trk>
<name>louht15</name>
<cmt>q</cmt>
<desc>Haccourt Chemin n°15 Rue du Moulin</desc>
<link href="https://chemins.be/haccourt/chemin/15"/><trkseg>
<trkpt lat="50.735142" lon="5.670695"><time>2026-05-02T21:14:38Z</time></trkpt>
<trkpt lat="50.734878" lon="5.670511"><time>2026-05-02T21:24:38Z</time></trkpt>
</trkseg></trk>
<trk>
<name>louht15</name>
<cmt>v</cmt>
<desc>Haccourt Chemin n°15 Rue du Moulin</desc>
<link href="https://chemins.be/haccourt/chemin/15"/><trkseg>
<trkpt lat="50.734878" lon="5.670511"><time>2026-05-02T21:24:38Z</time></trkpt>
<trkpt lat="50.734526" lon="5.670232"><time>2026-05-02T21:34:38Z</time></trkpt>
</trkseg></trk>
<trk>
<name>louht15</name>
<cmt>r</cmt>
<desc>Haccourt Chemin n°15 Rue du Moulin</desc>
<link href="https://chemins.be/haccourt/chemin/15"/><trkseg>
<trkpt lat="50.734526" lon="5.670232"><time>2026-05-02T21:34:38Z</time></trkpt>
<trkpt lat="50.734340" lon="5.669724"><time>2026-05-02T21:44:38Z</time></trkpt>
<trkpt lat="50.733917" lon="5.668125"><time>2026-05-02T21:54:38Z</time></trkpt>
<trkpt lat="50.733523" lon="5.668236"><time>2026-05-02T22:04:38Z</time></trkpt>
<trkpt lat="50.733141" lon="5.667260"><time>2026-05-02T22:14:38Z</time></trkpt>
<trkpt lat="50.733152" lon="5.666702"><time>2026-05-02T22:24:38Z</time></trkpt>
<trkpt lat="50.732598" lon="5.664587"><time>2026-05-02T22:34:38Z</time></trkpt>
</trkseg></trk>
<trk>
<name>louht15</name>
<cmt>v</cmt>
<desc>Haccourt Chemin n°15 Rue du Moulin</desc>
<link href="https://chemins.be/haccourt/chemin/15"/><trkseg>
<trkpt lat="50.732598" lon="5.664587"><time>2026-05-02T22:34:38Z</time></trkpt>
<trkpt lat="50.732640" lon="5.664208"><time>2026-05-02T22:44:38Z</time></trkpt>
<trkpt lat="50.732521" lon="5.663883"><time>2026-05-02T22:54:38Z</time></trkpt>
<trkpt lat="50.732396" lon="5.663439"><time>2026-05-02T23:04:38Z</time></trkpt>
<trkpt lat="50.732024" lon="5.662722"><time>2026-05-02T23:14:38Z</time></trkpt>
<trkpt lat="50.731721" lon="5.661949"><time>2026-05-02T23:24:38Z</time></trkpt>
<trkpt lat="50.731688" lon="5.661764"><time>2026-05-02T23:34:38Z</time></trkpt>
<trkpt lat="50.731544" lon="5.661455"><time>2026-05-02T23:44:38Z</time></trkpt>
<trkpt lat="50.731258" lon="5.660921"><time>2026-05-02T23:54:38Z</time></trkpt>
<trkpt lat="50.731142" lon="5.660853"><time>2026-05-03T00:04:38Z</time></trkpt>
</trkseg>
</trk>
</gpx>